createdAt,value
2023-09-16T00:00:09.773Z,69.95
2023-09-16T00:01:13.234Z,70.00
2023-09-16T00:02:19.010Z,69.82
2023-09-16T00:03:22.471Z,69.81
2023-09-16T00:04:26.915Z,69.70
2023-09-16T00:05:32.327Z,69.83
2023-09-16T00:06:36.537Z,69.25
2023-09-16T00:07:39.586Z,69.23
2023-09-16T00:08:45.735Z,69.20
2023-09-16T00:09:48.806Z,69.16
2023-09-16T00:10:53.140Z,68.79
2023-09-16T00:11:56.303Z,68.51
2023-09-16T00:13:02.629Z,68.42
2023-09-16T00:14:05.887Z,68.16
2023-09-16T00:15:10.389Z,68.17
2023-09-16T00:16:16.751Z,68.28
2023-09-16T00:17:20.823Z,68.01
2023-09-16T00:18:24.762Z,68.40
2023-09-16T00:19:28.722Z,68.45
2023-09-16T00:20:33.554Z,68.70
2023-09-16T00:21:37.624Z,68.90
2023-09-16T00:22:40.690Z,68.94
2023-09-16T00:23:43.896Z,68.69
2023-09-16T00:24:48.039Z,68.58
2023-09-16T00:25:50.980Z,68.94
2023-09-16T00:26:55.599Z,68.74
2023-09-16T00:27:59.390Z,68.92
2023-09-16T00:29:03.840Z,68.69
2023-09-16T00:30:09.192Z,68.93
2023-09-16T00:31:13.918Z,69.34
2023-09-16T00:32:17.184Z,69.13
2023-09-16T00:33:21.401Z,69.51
2023-09-16T00:34:24.520Z,69.74
2023-09-16T00:35:28.444Z,69.83
2023-09-16T00:36:33.114Z,70.13
2023-09-16T00:37:37.153Z,70.04
2023-09-16T00:38:40.122Z,70.00
2023-09-16T00:39:44.269Z,70.14
2023-09-16T00:40:47.412Z,70.01
2023-09-16T00:41:52.068Z,70.02
2023-09-16T00:42:55.107Z,69.83
2023-09-16T00:43:59.680Z,70.00
2023-09-16T00:45:02.852Z,70.06
2023-09-16T00:46:07.330Z,69.77
2023-09-16T00:47:10.538Z,69.75
2023-09-16T00:48:18.200Z,69.83
2023-09-16T00:49:21.263Z,70.01
2023-09-16T00:50:25.846Z,70.06
2023-09-16T00:51:29.331Z,69.91
2023-09-16T00:52:36.001Z,69.95
2023-09-16T00:53:41.169Z,70.01
2023-09-16T00:54:45.766Z,70.25
2023-09-16T00:55:49.877Z,69.87
2023-09-16T00:56:55.299Z,70.25
2023-09-16T00:57:59.762Z,70.41
2023-09-16T00:59:05.284Z,70.46
2023-09-16T01:00:09.548Z,70.61
2023-09-16T01:01:15.646Z,70.73
2023-09-16T01:02:19.204Z,70.90
2023-09-16T01:03:24.105Z,70.63
2023-09-16T01:04:27.957Z,71.10
2023-09-16T01:05:32.283Z,71.22
2023-09-16T01:06:36.187Z,71.60
2023-09-16T01:07:41.113Z,71.68
2023-09-16T01:08:47.819Z,71.60
2023-09-16T01:09:51.167Z,71.64
2023-09-16T01:10:55.229Z,71.85
2023-09-16T01:11:58.167Z,72.16
2023-09-16T01:13:02.554Z,72.28
2023-09-16T01:14:07.078Z,72.42
2023-09-16T01:15:12.273Z,72.31
2023-09-16T01:16:23.109Z,72.55
2023-09-16T01:17:34.219Z,72.51
2023-09-16T01:18:44.100Z,72.46
2023-09-16T01:19:54.213Z,72.50
2023-09-16T01:20:59.556Z,72.63
2023-09-16T01:22:04.702Z,72.82
2023-09-16T01:23:10.157Z,72.62
2023-09-16T01:24:18.144Z,72.55
2023-09-16T01:25:27.906Z,72.57
2023-09-16T01:26:30.907Z,72.46
2023-09-16T01:27:35.433Z,72.36
2023-09-16T01:28:39.264Z,72.75
2023-09-16T01:29:43.465Z,72.83
2023-09-16T01:30:50.062Z,73.00
2023-09-16T01:31:55.748Z,72.84
2023-09-16T01:33:04.670Z,73.00
2023-09-16T01:34:17.525Z,73.19
2023-09-16T01:35:23.703Z,73.26
2023-09-16T01:36:33.142Z,73.76
2023-09-16T01:37:39.719Z,73.71
2023-09-16T01:38:47.287Z,74.15
2023-09-16T01:39:57.199Z,74.17
2023-09-16T01:41:04.442Z,74.37
2023-09-16T01:42:08.319Z,73.98
2023-09-16T01:43:12.763Z,74.26
2023-09-16T01:44:15.791Z,74.12
2023-09-16T01:45:19.848Z,73.68
2023-09-16T01:46:23.175Z,74.21
2023-09-16T01:47:27.685Z,74.14
2023-09-16T01:48:44.653Z,73.62
2023-09-16T01:49:51.033Z,73.72
2023-09-16T01:50:54.678Z,73.83
2023-09-16T01:51:58.839Z,73.67
2023-09-16T01:53:02.415Z,73.86
2023-09-16T01:54:06.896Z,73.81
2023-09-16T01:55:10.516Z,73.86
2023-09-16T01:56:15.839Z,74.00
2023-09-16T01:57:18.937Z,73.44
2023-09-16T01:58:23.321Z,73.30
2023-09-16T01:59:26.604Z,73.12
2023-09-16T02:00:30.734Z,73.02
2023-09-16T02:01:37.939Z,73.13
2023-09-16T02:02:42.205Z,73.08
2023-09-16T02:03:45.555Z,73.14
2023-09-16T02:04:50.114Z,72.62
2023-09-16T02:05:53.282Z,73.08
2023-09-16T02:06:57.367Z,72.86
2023-09-16T02:08:00.516Z,73.08
2023-09-16T02:09:05.273Z,73.43
2023-09-16T02:10:09.248Z,73.41
2023-09-16T02:11:13.722Z,73.36
2023-09-16T02:12:18.153Z,73.20
2023-09-16T02:13:22.046Z,72.83
2023-09-16T02:14:26.554Z,73.13
2023-09-16T02:15:29.814Z,73.25
2023-09-16T02:16:34.577Z,73.08
2023-09-16T02:17:40.328Z,73.99
2023-09-16T02:18:45.124Z,73.57
2023-09-16T02:19:48.841Z,73.43
2023-09-16T02:20:53.413Z,73.70
2023-09-16T02:21:56.959Z,73.54
2023-09-16T02:23:01.286Z,74.08
2023-09-16T02:24:05.315Z,74.00
2023-09-16T02:25:08.896Z,74.00
2023-09-16T02:26:13.089Z,73.71
2023-09-16T02:27:18.532Z,74.42
2023-09-16T02:28:22.472Z,74.49
2023-09-16T02:29:25.795Z,74.33
2023-09-16T02:30:29.818Z,74.71
2023-09-16T02:31:35.226Z,74.35
2023-09-16T02:32:39.593Z,74.93
2023-09-16T02:33:43.611Z,74.42
2023-09-16T02:34:47.745Z,74.30
2023-09-16T02:35:52.266Z,74.32
2023-09-16T02:36:56.455Z,74.40
2023-09-16T02:38:03.292Z,74.26
2023-09-16T02:39:07.490Z,74.10
2023-09-16T02:40:12.402Z,74.45
2023-09-16T02:41:22.160Z,74.40
2023-09-16T02:42:41.714Z,74.25
2023-09-16T02:43:45.710Z,74.31
2023-09-16T02:44:48.621Z,74.64
2023-09-16T02:45:52.626Z,74.64
2023-09-16T02:46:55.783Z,75.04
2023-09-16T02:47:59.795Z,74.80
2023-09-16T02:49:14.734Z,74.67
2023-09-16T02:50:19.364Z,75.02
2023-09-16T02:51:22.494Z,74.94
2023-09-16T02:52:27.169Z,75.07
2023-09-16T02:53:30.108Z,74.82
2023-09-16T02:54:34.105Z,75.02
2023-09-16T02:55:37.019Z,74.55
2023-09-16T02:56:41.189Z,75.07
2023-09-16T02:57:46.150Z,74.86
2023-09-16T02:58:50.345Z,75.52
2023-09-16T02:59:53.966Z,75.32
2023-09-16T03:01:00.100Z,75.62
2023-09-16T03:02:06.125Z,75.57
2023-09-16T03:03:14.472Z,75.42
2023-09-16T03:04:17.848Z,75.09
2023-09-16T03:05:21.015Z,75.48
2023-09-16T03:06:25.916Z,75.48
2023-09-16T03:07:29.288Z,75.55
2023-09-16T03:08:33.911Z,75.91
2023-09-16T03:09:37.907Z,76.24
2023-09-16T03:10:41.131Z,75.96
2023-09-16T03:11:46.440Z,75.92
2023-09-16T03:12:50.863Z,75.62
2023-09-16T03:13:56.002Z,75.75
2023-09-16T03:14:58.915Z,76.08
2023-09-16T03:16:19.394Z,75.55
2023-09-16T03:17:22.380Z,75.89
2023-09-16T03:18:25.495Z,76.03
2023-09-16T03:19:29.725Z,75.63
2023-09-16T03:20:33.357Z,76.15
2023-09-16T03:21:37.424Z,75.79
2023-09-16T03:22:40.699Z,75.80
2023-09-16T03:23:45.595Z,75.91
2023-09-16T03:24:50.076Z,76.20
2023-09-16T03:25:54.765Z,76.03
2023-09-16T03:26:58.253Z,76.03
2023-09-16T03:28:03.668Z,76.40
2023-09-16T03:29:06.870Z,76.57
2023-09-16T03:30:12.101Z,75.94
2023-09-16T03:31:16.202Z,76.33
2023-09-16T03:32:20.778Z,76.16
2023-09-16T03:33:24.272Z,76.44
2023-09-16T03:34:28.489Z,76.71
2023-09-16T03:35:32.431Z,76.41
2023-09-16T03:36:36.717Z,76.00
2023-09-16T03:37:39.695Z,75.48
2023-09-16T03:38:48.355Z,75.25
2023-09-16T03:39:52.545Z,74.95
2023-09-16T03:40:56.379Z,74.94
2023-09-16T03:42:00.577Z,75.06
2023-09-16T03:43:05.459Z,74.56
2023-09-16T03:44:11.213Z,74.93
2023-09-16T03:45:27.026Z,74.93
2023-09-16T03:46:33.419Z,74.62
2023-09-16T03:47:36.415Z,74.45
2023-09-16T03:48:40.449Z,74.23
2023-09-16T03:49:44.160Z,74.16
2023-09-16T03:50:47.555Z,73.88
2023-09-16T03:51:51.678Z,73.68
2023-09-16T03:52:55.202Z,73.46
2023-09-16T03:53:58.416Z,73.54
2023-09-16T03:55:04.320Z,72.86
2023-09-16T03:56:09.698Z,73.16
2023-09-16T03:57:14.449Z,72.83
2023-09-16T03:58:19.158Z,72.69
2023-09-16T03:59:23.485Z,72.72
2023-09-16T04:00:27.013Z,72.22
2023-09-16T04:01:31.119Z,72.28
2023-09-16T04:02:35.084Z,71.79
2023-09-16T04:03:39.260Z,72.07
2023-09-16T04:04:42.545Z,72.37
2023-09-16T04:05:46.481Z,71.72
2023-09-16T04:06:49.574Z,71.96
2023-09-16T04:07:53.753Z,72.01
2023-09-16T04:08:56.779Z,72.23
2023-09-16T04:10:00.973Z,72.03
2023-09-16T04:11:04.284Z,72.02
2023-09-16T04:12:09.316Z,71.49
2023-09-16T04:13:13.797Z,71.56
2023-09-16T04:14:22.024Z,71.92
2023-09-16T04:15:25.077Z,71.82
2023-09-16T04:16:29.906Z,71.85
2023-09-16T04:17:33.700Z,71.76
2023-09-16T04:18:37.853Z,72.20
2023-09-16T04:19:41.617Z,72.10
2023-09-16T04:20:46.868Z,71.84
2023-09-16T04:21:52.582Z,72.01
2023-09-16T04:22:55.666Z,72.11
2023-09-16T04:23:59.282Z,71.65
2023-09-16T04:25:03.758Z,71.81
2023-09-16T04:26:07.697Z,71.38
2023-09-16T04:27:12.077Z,71.59
2023-09-16T04:28:16.381Z,71.60
2023-09-16T04:29:22.341Z,71.53
2023-09-16T04:30:25.481Z,71.53
2023-09-16T04:31:31.408Z,71.88
2023-09-16T04:32:34.540Z,71.74
2023-09-16T04:33:48.464Z,71.61
2023-09-16T04:35:18.346Z,72.10
2023-09-16T04:36:25.192Z,71.89
2023-09-16T04:37:38.697Z,71.82
2023-09-16T04:39:17.125Z,72.28
2023-09-16T04:40:23.823Z,72.40
2023-09-16T04:41:28.215Z,72.80
2023-09-16T04:42:32.455Z,72.65
2023-09-16T04:43:36.656Z,72.84
2023-09-16T04:44:41.652Z,73.08
2023-09-16T04:45:46.840Z,73.38
2023-09-16T04:46:54.442Z,73.69
2023-09-16T04:47:59.232Z,74.06
2023-09-16T04:49:02.347Z,74.30
2023-09-16T04:50:07.267Z,74.25
2023-09-16T04:51:10.943Z,74.85
2023-09-16T04:52:15.722Z,74.86
2023-09-16T04:53:18.871Z,74.88
2023-09-16T04:54:23.218Z,75.19
2023-09-16T04:55:26.703Z,75.15
2023-09-16T04:56:30.770Z,75.32
2023-09-16T04:57:36.193Z,75.14
2023-09-16T04:58:40.444Z,75.49
2023-09-16T04:59:46.476Z,75.37
2023-09-16T05:00:50.363Z,75.64
2023-09-16T05:01:54.212Z,75.51
2023-09-16T05:02:59.526Z,75.99
2023-09-16T05:04:02.641Z,76.03
2023-09-16T05:05:07.786Z,75.83
2023-09-16T05:06:12.379Z,76.04
2023-09-16T05:07:17.181Z,76.18
2023-09-16T05:08:21.201Z,76.02
2023-09-16T05:09:26.149Z,75.79
2023-09-16T05:10:29.443Z,75.65
2023-09-16T05:11:33.969Z,75.71
2023-09-16T05:12:37.242Z,76.02
2023-09-16T05:13:42.305Z,76.26
2023-09-16T05:14:47.524Z,75.90
2023-09-16T05:15:52.516Z,75.76
2023-09-16T05:16:56.458Z,75.93
2023-09-16T05:18:01.170Z,76.06
2023-09-16T05:19:05.737Z,75.58
2023-09-16T05:20:10.258Z,75.43
2023-09-16T05:21:13.558Z,75.63
2023-09-16T05:22:17.669Z,75.31
2023-09-16T05:23:20.648Z,75.03
2023-09-16T05:24:25.353Z,74.86
2023-09-16T05:25:30.216Z,74.69
2023-09-16T05:26:34.351Z,74.40
2023-09-16T05:27:37.682Z,74.53
2023-09-16T05:28:41.742Z,74.66
2023-09-16T05:29:44.825Z,74.53
2023-09-16T05:30:50.301Z,74.33
2023-09-16T05:31:54.354Z,74.63
2023-09-16T05:32:58.333Z,74.97
2023-09-16T05:34:01.465Z,74.79
2023-09-16T05:35:06.578Z,75.15
2023-09-16T05:36:09.564Z,75.00
2023-09-16T05:37:12.640Z,75.40
2023-09-16T05:38:16.585Z,75.06
2023-09-16T05:39:19.552Z,74.88
2023-09-16T05:40:23.689Z,74.94
2023-09-16T05:41:26.853Z,74.60
2023-09-16T05:42:30.790Z,74.44
2023-09-16T05:43:34.095Z,74.01
2023-09-16T05:44:38.367Z,73.85
2023-09-16T05:45:42.027Z,73.78
2023-09-16T05:46:47.851Z,73.45
2023-09-16T05:47:51.346Z,72.98
2023-09-16T05:49:03.206Z,73.11
2023-09-16T05:50:06.917Z,72.91
2023-09-16T05:51:11.382Z,72.88
2023-09-16T05:52:14.419Z,72.56
2023-09-16T05:53:18.976Z,72.36
2023-09-16T05:54:22.174Z,72.34
2023-09-16T05:55:26.234Z,72.01
2023-09-16T05:56:29.490Z,72.01
2023-09-16T05:57:33.470Z,71.80
2023-09-16T05:58:37.176Z,71.64
2023-09-16T05:59:41.191Z,71.37
2023-09-16T06:00:44.148Z,71.70
2023-09-16T06:01:49.398Z,71.56
2023-09-16T06:02:53.502Z,71.19
2023-09-16T06:03:57.528Z,70.99
2023-09-16T06:05:00.589Z,71.61
2023-09-16T06:06:05.426Z,71.71
2023-09-16T06:07:08.757Z,71.61
2023-09-16T06:08:13.374Z,71.62
2023-09-16T06:09:18.369Z,71.51
2023-09-16T06:10:22.345Z,71.79
2023-09-16T06:11:29.919Z,72.09
2023-09-16T06:12:34.326Z,72.17
2023-09-16T06:13:37.139Z,72.25
2023-09-16T06:14:41.293Z,72.21
2023-09-16T06:15:45.081Z,72.18
2023-09-16T06:16:50.512Z,71.86
2023-09-16T06:17:53.484Z,71.74
2023-09-16T06:18:57.293Z,71.51
2023-09-16T06:20:00.216Z,71.21
2023-09-16T06:21:04.686Z,71.15
2023-09-16T06:22:10.753Z,70.38
2023-09-16T06:23:15.311Z,70.27
2023-09-16T06:24:22.650Z,70.00
2023-09-16T06:25:28.024Z,69.90
2023-09-16T06:26:31.871Z,69.73
2023-09-16T06:27:36.388Z,69.63
2023-09-16T06:28:39.230Z,69.45
2023-09-16T06:29:43.263Z,68.96
2023-09-16T06:30:46.129Z,68.44
2023-09-16T06:31:51.489Z,68.23
2023-09-16T06:32:54.664Z,68.08
2023-09-16T06:33:58.736Z,67.48
2023-09-16T06:35:01.777Z,67.38
2023-09-16T06:36:06.289Z,67.05
2023-09-16T06:37:09.401Z,66.44
2023-09-16T06:38:13.346Z,66.33
2023-09-16T06:39:16.301Z,65.82
2023-09-16T06:40:20.474Z,65.71
2023-09-16T06:41:23.634Z,65.63
2023-09-16T06:42:27.562Z,64.86
2023-09-16T06:43:30.494Z,65.02
2023-09-16T06:44:34.688Z,64.50
2023-09-16T06:45:37.900Z,64.29
2023-09-16T06:46:44.652Z,64.36
2023-09-16T06:47:49.402Z,64.60
2023-09-16T06:48:53.433Z,64.17
2023-09-16T06:49:57.945Z,64.22
2023-09-16T06:51:01.992Z,64.07
2023-09-16T06:52:06.197Z,64.06
2023-09-16T06:53:10.444Z,63.56
2023-09-16T06:54:14.397Z,63.81
2023-09-16T06:55:18.718Z,63.54
2023-09-16T06:56:21.974Z,63.87
2023-09-16T07:00:00.842Z,63.00
2023-09-16T07:01:10.261Z,62.43
2023-09-16T07:02:15.240Z,62.53
2023-09-16T07:03:20.007Z,61.93
2023-09-16T07:04:24.137Z,62.47
2023-09-16T07:05:30.284Z,62.20
2023-09-16T07:06:34.663Z,62.06
2023-09-16T07:07:37.890Z,61.78
2023-09-16T07:08:43.232Z,61.96
2023-09-16T07:09:46.998Z,61.65
2023-09-16T07:10:52.132Z,61.84
2023-09-16T07:11:55.446Z,62.04
2023-09-16T07:12:59.713Z,61.68
2023-09-16T07:14:04.525Z,62.00
2023-09-16T07:15:11.091Z,62.17
2023-09-16T07:16:15.108Z,62.08
2023-09-16T07:17:19.184Z,61.81
2023-09-16T07:18:24.043Z,61.96
2023-09-16T07:19:28.122Z,61.42
2023-09-16T07:20:32.201Z,61.54
2023-09-16T07:21:37.171Z,61.23
2023-09-16T07:22:40.246Z,61.24
2023-09-16T07:23:44.452Z,61.54
2023-09-16T07:24:47.758Z,61.98
2023-09-16T07:25:57.012Z,62.11
2023-09-16T07:27:00.380Z,62.35
2023-09-16T07:28:05.960Z,62.15
2023-09-16T07:29:09.037Z,62.15
2023-09-16T07:30:15.796Z,61.88
2023-09-16T07:31:19.262Z,62.11
2023-09-16T07:32:23.770Z,62.40
2023-09-16T07:33:29.521Z,62.55
2023-09-16T07:34:33.597Z,63.12
2023-09-16T07:35:36.756Z,63.15
2023-09-16T07:36:39.854Z,63.18
2023-09-16T07:37:43.927Z,63.03
2023-09-16T07:38:47.106Z,63.02
2023-09-16T07:39:52.604Z,62.77
2023-09-16T07:40:55.820Z,63.13
2023-09-16T07:42:00.154Z,62.92
2023-09-16T07:43:03.717Z,62.48
2023-09-16T07:44:08.221Z,62.71
2023-09-16T07:45:12.124Z,62.19
2023-09-16T07:46:16.446Z,62.71
2023-09-16T07:47:19.518Z,62.51
2023-09-16T07:48:24.297Z,62.06
2023-09-16T07:49:28.954Z,61.89
2023-09-16T07:50:33.755Z,61.74
2023-09-16T07:51:40.972Z,61.86
2023-09-16T07:52:45.919Z,62.27
2023-09-16T07:53:49.008Z,62.20
2023-09-16T07:54:52.167Z,62.09
2023-09-16T07:55:56.490Z,61.83
2023-09-16T07:56:59.643Z,61.68
2023-09-16T07:58:03.710Z,60.89
2023-09-16T07:59:06.805Z,61.00
2023-09-16T08:00:12.184Z,61.19
2023-09-16T08:01:15.364Z,60.79
2023-09-16T08:02:19.863Z,60.65
2023-09-16T08:03:23.586Z,60.89
2023-09-16T08:04:27.897Z,60.82
2023-09-16T08:05:32.594Z,60.88
2023-09-16T08:06:36.770Z,60.67
2023-09-16T08:07:39.927Z,60.75
2023-09-16T08:08:44.396Z,60.72
2023-09-16T08:09:50.209Z,60.72
2023-09-16T08:10:56.325Z,60.55
2023-09-16T08:12:00.590Z,60.47
2023-09-16T08:13:04.894Z,60.77
2023-09-16T08:14:08.300Z,60.55
2023-09-16T08:15:12.469Z,61.16
2023-09-16T08:16:15.545Z,60.22
2023-09-16T08:17:19.789Z,60.20
2023-09-16T08:18:22.796Z,60.31
2023-09-16T08:19:26.891Z,59.87
2023-09-16T08:20:31.811Z,59.64
2023-09-16T08:21:35.694Z,59.75
2023-09-16T08:22:38.716Z,59.28
2023-09-16T08:23:42.868Z,58.54
2023-09-16T08:24:45.919Z,58.48
2023-09-16T08:25:49.929Z,57.75
2023-09-16T08:26:53.097Z,57.23
2023-09-16T08:28:06.180Z,57.01
2023-09-16T08:29:39.074Z,56.91
2023-09-16T08:30:43.413Z,56.70
2023-09-16T08:31:46.820Z,56.37
2023-09-16T08:32:50.945Z,55.97
2023-09-16T08:33:55.802Z,55.27
2023-09-16T08:34:59.808Z,55.37
2023-09-16T08:36:04.388Z,55.42
2023-09-16T08:37:09.806Z,55.19
2023-09-16T08:38:13.150Z,54.84
2023-09-16T08:39:17.100Z,54.76
2023-09-16T08:40:20.226Z,54.88
2023-09-16T08:41:30.492Z,54.64
2023-09-16T08:42:40.270Z,54.90
2023-09-16T08:43:44.276Z,55.08
2023-09-16T08:44:52.986Z,55.03
2023-09-16T08:46:02.066Z,54.87
2023-09-16T08:47:11.676Z,54.35
2023-09-16T08:48:21.898Z,54.20
2023-09-16T08:49:29.572Z,54.23
2023-09-16T08:50:34.266Z,54.54
2023-09-16T08:51:44.882Z,54.19
2023-09-16T08:53:46.262Z,54.16
2023-09-16T08:54:52.345Z,54.15
2023-09-16T08:55:58.357Z,54.03
2023-09-16T08:57:02.157Z,53.71
2023-09-16T08:58:07.733Z,53.76
2023-09-16T08:59:11.482Z,53.54
2023-09-16T09:00:17.038Z,53.40
2023-09-16T09:01:20.193Z,53.38
2023-09-16T09:02:26.189Z,53.17
2023-09-16T09:03:29.530Z,53.08
2023-09-16T09:04:34.827Z,52.90
2023-09-16T09:05:39.469Z,52.32
2023-09-16T09:06:45.931Z,52.16
2023-09-16T09:07:49.067Z,51.96
2023-09-16T09:08:54.626Z,51.61
2023-09-16T09:09:58.852Z,51.87
2023-09-16T09:11:03.044Z,51.37
2023-09-16T09:12:07.485Z,51.12
2023-09-16T09:13:14.992Z,51.32
2023-09-16T09:14:19.666Z,51.26
2023-09-16T09:15:25.106Z,50.79
2023-09-16T09:16:29.915Z,51.42
2023-09-16T09:17:40.194Z,51.51
2023-09-16T09:18:46.190Z,51.42
2023-09-16T09:19:51.564Z,50.99
2023-09-16T09:20:55.215Z,50.99
2023-09-16T09:22:01.849Z,51.41
2023-09-16T09:23:05.334Z,51.56
2023-09-16T09:24:09.613Z,50.90
2023-09-16T09:25:13.237Z,51.44
2023-09-16T09:26:17.317Z,50.99
2023-09-16T09:27:20.364Z,50.77
2023-09-16T09:28:25.259Z,50.56
2023-09-16T09:29:29.000Z,51.44
2023-09-16T09:30:33.679Z,51.72
2023-09-16T09:31:38.014Z,51.71
2023-09-16T09:32:46.193Z,52.19
2023-09-16T09:33:49.748Z,51.55
2023-09-16T09:34:53.828Z,50.95
2023-09-16T09:36:12.052Z,50.72
2023-09-16T09:37:18.850Z,50.44
2023-09-16T09:38:22.298Z,50.33
2023-09-16T09:39:26.265Z,50.00
2023-09-16T09:40:30.072Z,50.79
2023-09-16T09:41:45.621Z,50.34
2023-09-16T09:42:53.527Z,50.36
2023-09-16T09:43:59.623Z,50.57
2023-09-16T09:45:03.809Z,50.74
2023-09-16T09:46:08.453Z,50.86
2023-09-16T09:47:14.213Z,50.95
2023-09-16T09:48:18.592Z,51.26
2023-09-16T09:49:22.256Z,51.36
2023-09-16T09:50:26.603Z,51.40
2023-09-16T09:51:30.136Z,51.30
2023-09-16T09:52:36.101Z,51.18
2023-09-16T09:53:39.095Z,51.54
2023-09-16T09:54:43.234Z,51.84
2023-09-16T09:55:46.205Z,52.09
2023-09-16T09:56:50.408Z,51.67
2023-09-16T09:57:54.216Z,51.24
2023-09-16T09:58:58.150Z,50.56
2023-09-16T10:00:01.262Z,50.81
2023-09-16T10:01:05.246Z,50.63
2023-09-16T10:02:09.910Z,50.58
2023-09-16T10:03:14.208Z,50.55
2023-09-16T10:04:17.611Z,50.74
2023-09-16T10:05:24.452Z,50.43
2023-09-16T10:06:27.744Z,50.37
2023-09-16T10:07:31.861Z,49.87
2023-09-16T10:08:36.430Z,50.20
2023-09-16T10:09:40.783Z,50.04
2023-09-16T10:10:48.209Z,50.15
2023-09-16T10:11:53.434Z,49.94
2023-09-16T10:12:58.099Z,49.76
2023-09-16T10:14:02.476Z,49.25
2023-09-16T10:15:08.068Z,48.72
2023-09-16T10:16:13.436Z,48.88
2023-09-16T10:17:17.440Z,48.76
2023-09-16T10:18:21.548Z,48.71
2023-09-16T10:19:25.076Z,48.32
2023-09-16T10:20:30.968Z,48.54
2023-09-16T10:21:36.898Z,48.40
2023-09-16T10:22:41.184Z,48.18
2023-09-16T10:23:48.698Z,48.19
2023-09-16T10:24:51.888Z,48.39
2023-09-16T10:25:55.860Z,48.45
2023-09-16T10:27:10.293Z,48.40
2023-09-16T10:28:14.720Z,48.30
2023-09-16T10:29:18.644Z,48.77
2023-09-16T10:30:23.872Z,48.61
2023-09-16T10:31:27.538Z,48.95
2023-09-16T10:32:32.232Z,49.12
2023-09-16T10:33:37.376Z,48.56
2023-09-16T10:34:45.540Z,48.35
2023-09-16T10:35:49.431Z,48.18
2023-09-16T10:36:54.005Z,48.16
2023-09-16T10:38:00.280Z,48.15
2023-09-16T10:39:06.671Z,47.35
2023-09-16T10:40:12.011Z,46.61
2023-09-16T10:41:18.592Z,46.96
2023-09-16T10:42:23.215Z,46.58
2023-09-16T10:43:27.548Z,47.61
2023-09-16T10:44:31.684Z,47.49
2023-09-16T10:45:35.827Z,47.71
2023-09-16T10:46:40.301Z,47.94
2023-09-16T10:47:44.593Z,47.75
2023-09-16T10:48:47.769Z,47.73
2023-09-16T10:49:52.050Z,47.58
2023-09-16T10:51:00.917Z,47.68
2023-09-16T10:52:06.781Z,47.83
2023-09-16T10:53:13.547Z,48.05
2023-09-16T10:54:27.421Z,48.32
2023-09-16T10:55:39.911Z,47.87
2023-09-16T10:56:46.430Z,47.82
2023-09-16T10:57:56.588Z,48.17
2023-09-16T10:59:08.670Z,47.56
2023-09-16T11:00:14.060Z,47.87
2023-09-16T11:01:24.132Z,47.10
2023-09-16T11:02:37.933Z,47.79
2023-09-16T11:03:46.327Z,47.56
2023-09-16T11:04:49.847Z,47.72
2023-09-16T11:05:53.992Z,47.57
2023-09-16T11:06:59.015Z,47.89
2023-09-16T11:08:03.546Z,47.90
2023-09-16T11:09:07.299Z,47.77
2023-09-16T11:10:14.411Z,48.09
2023-09-16T11:11:18.094Z,47.74
2023-09-16T11:12:23.564Z,48.04
2023-09-16T11:13:28.075Z,48.06
2023-09-16T11:14:32.254Z,47.54
2023-09-16T11:15:36.745Z,47.28
2023-09-16T11:16:51.073Z,47.38
2023-09-16T11:18:01.968Z,47.52
2023-09-16T11:19:10.879Z,47.41
2023-09-16T11:20:20.934Z,47.66
2023-09-16T11:21:26.751Z,47.05
2023-09-16T11:22:29.931Z,47.39
2023-09-16T11:23:34.061Z,47.31
2023-09-16T11:24:37.954Z,46.92
2023-09-16T11:25:44.402Z,46.58
2023-09-16T11:26:49.169Z,46.96
2023-09-16T11:27:53.511Z,47.15
2023-09-16T11:28:58.023Z,46.84
2023-09-16T11:30:12.506Z,46.69
2023-09-16T11:31:15.571Z,46.92
2023-09-16T11:32:22.653Z,47.31
2023-09-16T11:33:29.185Z,46.92
2023-09-16T11:34:33.839Z,47.08
2023-09-16T11:35:38.603Z,47.40
2023-09-16T11:36:46.143Z,47.37
2023-09-16T11:37:49.606Z,47.52
2023-09-16T11:38:59.691Z,47.54
2023-09-16T11:40:03.680Z,47.30
2023-09-16T11:41:12.655Z,47.25
2023-09-16T11:42:15.827Z,47.22
2023-09-16T11:43:19.908Z,47.09
2023-09-16T11:44:23.878Z,46.58
2023-09-16T11:45:30.257Z,46.21
2023-09-16T11:46:34.630Z,46.52
2023-09-16T11:47:38.691Z,45.69
2023-09-16T11:48:50.403Z,45.92
2023-09-16T11:49:54.582Z,45.77
2023-09-16T11:50:57.656Z,45.37
2023-09-16T11:52:01.977Z,45.64
2023-09-16T11:53:05.157Z,45.22
2023-09-16T11:54:08.416Z,45.66
2023-09-16T11:55:12.668Z,45.50
2023-09-16T11:56:18.800Z,45.89
2023-09-16T11:57:23.164Z,45.61
2023-09-16T11:58:46.946Z,46.04
2023-09-16T11:59:57.225Z,45.74
2023-09-16T12:01:03.744Z,45.61
2023-09-16T12:02:09.670Z,45.55
2023-09-16T12:03:16.168Z,45.29
2023-09-16T12:04:21.411Z,45.18
2023-09-16T12:05:28.563Z,45.38
2023-09-16T12:06:36.509Z,45.25
2023-09-16T12:07:40.097Z,45.10
2023-09-16T12:08:45.527Z,45.14
2023-09-16T12:09:49.441Z,45.24
2023-09-16T12:10:54.383Z,45.17
2023-09-16T12:12:00.302Z,45.50
2023-09-16T12:13:06.082Z,45.75
2023-09-16T12:14:09.240Z,46.13
2023-09-16T12:15:13.239Z,46.17
2023-09-16T12:16:17.449Z,46.79
2023-09-16T12:17:22.742Z,46.95
2023-09-16T12:18:26.074Z,46.93
2023-09-16T12:19:30.526Z,47.11
2023-09-16T12:20:36.019Z,47.12
2023-09-16T12:21:48.234Z,47.40
2023-09-16T12:22:53.691Z,47.35
2023-09-16T12:23:57.664Z,47.50
2023-09-16T12:25:00.818Z,47.53
2023-09-16T12:26:05.327Z,47.75
2023-09-16T12:27:09.776Z,47.78
2023-09-16T12:28:19.002Z,48.03
2023-09-16T12:29:22.274Z,47.96
2023-09-16T12:30:26.358Z,48.04
2023-09-16T12:31:29.372Z,47.85
2023-09-16T12:32:33.391Z,48.01
2023-09-16T12:33:41.903Z,47.88
2023-09-16T12:34:45.996Z,48.11
2023-09-16T12:35:52.028Z,47.87
2023-09-16T12:36:56.148Z,47.91
2023-09-16T12:38:00.790Z,48.35
2023-09-16T12:39:05.619Z,48.45
2023-09-16T12:40:10.179Z,48.68
2023-09-16T12:41:16.353Z,48.68
2023-09-16T12:42:22.010Z,48.85
2023-09-16T12:43:26.946Z,48.90
2023-09-16T12:44:31.569Z,48.78
2023-09-16T12:45:37.928Z,48.85
2023-09-16T12:46:42.010Z,48.72
2023-09-16T12:47:46.161Z,48.75
2023-09-16T12:48:51.443Z,48.75
2023-09-16T12:49:56.371Z,48.67
2023-09-16T12:51:00.529Z,48.53
2023-09-16T12:52:05.012Z,48.65
2023-09-16T12:53:08.434Z,48.71
2023-09-16T12:54:12.832Z,48.64
2023-09-16T12:55:16.235Z,48.59
2023-09-16T12:56:20.438Z,48.51
2023-09-16T12:57:25.434Z,48.54
2023-09-16T12:58:29.480Z,48.53
2023-09-16T12:59:33.510Z,48.41
2023-09-16T13:00:37.864Z,48.51
2023-09-16T13:01:42.732Z,48.45
2023-09-16T13:02:48.675Z,48.50
2023-09-16T13:03:52.613Z,48.75
2023-09-16T13:05:12.599Z,48.95
2023-09-16T13:06:15.929Z,48.86
2023-09-16T13:07:24.017Z,48.88
2023-09-16T13:08:28.166Z,49.08
2023-09-16T13:09:32.992Z,48.91
2023-09-16T13:10:36.991Z,48.61
2023-09-16T13:11:41.359Z,48.44
2023-09-16T13:12:46.242Z,47.96
2023-09-16T13:13:54.261Z,47.86
2023-09-16T13:14:57.794Z,47.39
2023-09-16T13:16:03.416Z,47.41
2023-09-16T13:17:07.119Z,47.30
2023-09-16T13:18:11.604Z,47.04
2023-09-16T13:19:22.345Z,47.05
2023-09-16T13:20:33.110Z,47.00
2023-09-16T13:21:37.668Z,47.04
2023-09-16T13:22:43.000Z,46.58
2023-09-16T13:23:53.919Z,47.10
2023-09-16T13:24:58.225Z,47.08
2023-09-16T13:26:13.404Z,46.90
2023-09-16T13:27:19.441Z,47.20
2023-09-16T13:28:26.824Z,47.33
2023-09-16T13:29:33.551Z,47.56
2023-09-16T13:30:39.440Z,47.35
2023-09-16T13:31:42.707Z,47.10
2023-09-16T13:32:53.110Z,47.48
2023-09-16T13:34:01.306Z,47.37
2023-09-16T13:35:07.275Z,47.39
2023-09-16T13:36:10.609Z,47.15
2023-09-16T13:37:17.981Z,46.97
2023-09-16T13:38:21.542Z,46.92
2023-09-16T13:39:26.589Z,46.99
2023-09-16T13:40:29.832Z,46.72
2023-09-16T13:41:35.387Z,46.90
2023-09-16T13:42:39.112Z,47.15
2023-09-16T13:43:44.937Z,47.13
2023-09-16T13:44:48.320Z,47.28
2023-09-16T13:45:52.520Z,47.26
2023-09-16T13:46:55.831Z,47.21
2023-09-16T13:48:18.137Z,47.60
2023-09-16T13:49:21.333Z,47.42
2023-09-16T13:50:25.507Z,47.42
2023-09-16T13:51:28.648Z,47.55
2023-09-16T13:52:33.267Z,46.89
2023-09-16T13:53:37.972Z,46.88
2023-09-16T13:54:42.621Z,46.84
2023-09-16T13:55:47.498Z,46.71
2023-09-16T13:56:51.981Z,46.59
2023-09-16T13:57:57.828Z,46.78
2023-09-16T13:59:03.672Z,46.99
2023-09-16T14:00:09.157Z,46.87
2023-09-16T14:01:14.162Z,46.71
2023-09-16T14:02:18.191Z,46.42